Time;durP1;ratioP1;P1;durP2;ratioP2;P2;SDS_P1;SDS_P2;PMS_P1;PMS_P2;Temp;Humidity;BMP_temperature;BMP_pressure;BME280_temperature;BME280_humidity;BME280_pressure;Samples;Min_cycle;Max_cycle;Signal;HPM_P1;HPM_P2
2022/08/23 00:00:40;;;;;;;;;;;;;;;22.53;68.51;101379.00;4949200;28;125509;-82
2022/08/23 00:03:06;;;;;;;;;;;;;;;22.53;68.33;101367.81;4945534;28;123702;-81
2022/08/23 00:05:31;;;;;;;;;;;;;;;22.53;67.91;101375.44;4943528;28;122328;-82
2022/08/23 00:07:57;;;;;;;;;;;;;;;22.53;68.03;101376.19;4947137;28;122517;-82
2022/08/23 00:10:23;;;;;;;;;;;;;;;22.53;68.26;101376.19;4946721;28;122554;-82
2022/08/23 00:12:49;;;;;;;;;;;;;;;22.53;68.09;101378.22;4927738;28;125370;-82
2022/08/23 00:15:19;;;;;;;;;;;;;;;22.52;67.94;101379.50;4928311;28;122275;-82
2022/08/23 00:17:45;;;;;;;;;;;;;;;22.51;67.93;101373.16;4942683;28;122340;-81
2022/08/23 00:20:12;;;;;;;;;;;;;;;22.53;67.75;101367.03;4909982;28;125812;-82
2022/08/23 00:22:38;;;;;;;;;;;;;;;22.53;67.59;101369.84;4950120;28;122668;-82
2022/08/23 00:25:05;;;;;;;;;;;;;;;22.52;67.63;101371.88;4944595;28;125650;-82
2022/08/23 00:27:32;;;;;;;;;;;;;;;22.52;68.13;101369.09;4945688;28;122129;-82
2022/08/23 00:29:57;;;;;;;;;;;;;;;22.51;68.22;101367.56;4929888;28;124300;-82
2022/08/23 00:32:26;;;;;;;;;;;;;;;22.50;68.22;101368.84;4929491;28;122509;-81
2022/08/23 00:34:52;;;;;;;;;;;;;;;22.49;67.33;101364.53;4945582;28;121919;-81
2022/08/23 00:37:19;;;;;;;;;;;;;;;22.47;68.01;101361.47;4913862;28;124465;-81
2022/08/23 00:39:45;;;;;;;;;;;;;;;22.45;67.73;101358.44;4945246;28;122712;-82
2022/08/23 00:47:43;;;;;;;;;;;;;;;22.42;67.99;101362.25;4942266;28;122231;-82
2022/08/23 00:50:30;;;;;;;;;;;;;;;22.43;68.05;101355.41;4913236;28;124487;-82
2022/08/23 00:53:07;;;;;;;;;;;;;;;22.44;67.69;101354.13;4928254;28;125380;-82
2022/08/23 00:55:33;;;;;;;;;;;;;;;22.44;67.45;101356.16;4927300;28;122462;-82
2022/08/23 00:57:59;;;;;;;;;;;;;;;22.43;67.40;101363.03;4945426;28;122109;-81
2022/08/23 01:00:25;;;;;;;;;;;;;;;22.41;66.99;101363.53;4929355;28;124995;-82
2022/08/23 01:02:51;;;;;;;;;;;;;;;22.41;67.40;101352.38;4929449;28;122018;-81
2022/08/23 01:05:18;;;;;;;;;;;;;;;22.42;67.53;101356.66;4928886;28;123836;-82
2022/08/23 01:07:50;;;;;;;;;;;;;;;22.43;67.58;101358.19;4949099;28;125080;-81
2022/08/23 01:10:18;;;;;;;;;;;;;;;22.43;67.71;101360.22;4945243;28;122143;-82
2022/08/23 01:12:47;;;;;;;;;;;;;;;22.43;67.38;101354.63;4921318;28;126086;-82
2022/08/23 01:15:17;;;;;;;;;;;;;;;22.41;66.90;101363.53;4944293;28;122635;-82
2022/08/23 01:17:54;;;;;;;;;;;;;;;22.41;66.88;101357.94;4930372;28;122085;-81
2022/08/23 01:20:21;;;;;;;;;;;;;;;22.39;67.35;101365.34;4908225;28;125671;-82
2022/08/23 01:23:09;;;;;;;;;;;;;;;22.37;66.79;101363.06;4923017;28;122733;-82
2022/08/23 01:25:36;;;;;;;;;;;;;;;22.34;67.51;101361.31;4913167;28;124362;-82
2022/08/23 01:28:01;;;;;;;;;;;;;;;22.33;67.01;101365.38;4942753;28;122831;-81
2022/08/23 01:30:31;;;;;;;;;;;;;;;22.31;67.29;101360.31;4947252;28;122389;-82
2022/08/23 01:32:58;;;;;;;;;;;;;;;22.30;67.58;101367.16;4925099;28;124958;-82
2022/08/23 01:35:30;;;;;;;;;;;;;;;22.29;67.24;101362.09;4928482;28;122364;-82
2022/08/23 01:37:56;;;;;;;;;;;;;;;22.27;67.26;101364.66;4926118;28;124321;-81
2022/08/23 01:40:22;;;;;;;;;;;;;;;22.24;66.97;101366.44;4910855;28;124750;-81
2022/08/23 01:42:48;;;;;;;;;;;;;;;22.21;67.15;101363.91;4924559;28;122243;-82
2022/08/23 01:45:14;;;;;;;;;;;;;;;22.18;67.19;101359.34;4911539;28;123766;-82
2022/08/23 01:47:41;;;;;;;;;;;;;;;22.15;67.33;101363.16;4912262;28;123210;-81
2022/08/23 01:50:08;;;;;;;;;;;;;;;22.11;67.00;101359.91;4912937;28;121890;-81
2022/08/23 01:52:34;;;;;;;;;;;;;;;22.08;67.60;101358.88;4914702;28;123518;-81
2022/08/23 01:55:00;;;;;;;;;;;;;;;22.04;67.16;101356.38;4944410;28;121962;-81
2022/08/23 01:57:27;;;;;;;;;;;;;;;21.99;67.07;101351.50;4944546;28;121947;-81
2022/08/23 01:59:54;;;;;;;;;;;;;;;21.97;66.82;101364.47;4908750;28;123780;-82
2022/08/23 02:02:20;;;;;;;;;;;;;;;21.94;67.65;101357.88;4911019;28;122674;-81
2022/08/23 02:04:45;;;;;;;;;;;;;;;21.92;67.32;101351.31;4929056;28;122070;-81
2022/08/23 02:07:11;;;;;;;;;;;;;;;21.89;66.93;101358.69;4924458;28;125369;-81
2022/08/23 02:09:37;;;;;;;;;;;;;;;21.86;67.11;101351.31;4931332;28;122827;-81
2022/08/23 02:12:04;;;;;;;;;;;;;;;21.84;67.66;101355.91;4931497;28;123281;-81
2022/08/23 02:14:31;;;;;;;;;;;;;;;21.80;67.13;101353.38;4930148;28;122080;-82
2022/08/23 02:16:59;;;;;;;;;;;;;;;21.78;66.92;101352.38;4949621;28;122159;-82
2022/08/23 02:19:25;;;;;;;;;;;;;;;21.76;67.46;101355.66;4934767;28;122125;-83
2022/08/23 02:21:51;;;;;;;;;;;;;;;21.74;67.76;101353.38;4931615;28;122192;-81
2022/08/23 02:24:19;;;;;;;;;;;;;;;21.72;67.57;101341.22;4932049;28;121470;-81
2022/08/23 02:26:47;;;;;;;;;;;;;;;21.69;67.48;101347.81;4931915;28;125823;-82
2022/08/23 02:29:13;;;;;;;;;;;;;;;21.66;67.61;101348.84;4928481;28;121682;-82
2022/08/23 02:31:41;;;;;;;;;;;;;;;21.64;67.59;101343.03;4947503;28;124116;-82
2022/08/23 02:34:07;;;;;;;;;;;;;;;21.63;67.01;101353.44;4935600;28;124851;-81
2022/08/23 02:36:33;;;;;;;;;;;;;;;21.61;67.15;101355.22;4932584;28;121555;-83
2022/08/23 02:39:11;;;;;;;;;;;;;;;21.58;67.57;101351.41;4932218;28;125383;-82
2022/08/23 02:41:37;;;;;;;;;;;;;;;21.57;67.04;101354.72;4948749;28;121694;-82
2022/08/23 02:44:05;;;;;;;;;;;;;;;21.55;67.11;101358.03;4948136;28;121580;-82
2022/08/23 02:46:31;;;;;;;;;;;;;;;21.53;67.92;101355.00;4947572;28;121894;-82
2022/08/23 02:48:56;;;;;;;;;;;;;;;21.52;67.55;101350.66;4927326;28;123163;-82
2022/08/23 02:51:24;;;;;;;;;;;;;;;21.51;67.17;101357.50;4948605;28;121448;-82
2022/08/23 02:53:49;;;;;;;;;;;;;;;21.50;67.49;101350.41;4914815;28;124669;-82
2022/08/23 02:56:17;;;;;;;;;;;;;;;21.52;67.64;101347.84;4947323;28;121616;-82
2022/08/23 02:58:44;;;;;;;;;;;;;;;21.51;67.67;101343.53;4945084;28;121436;-82
2022/08/23 03:01:18;;;;;;;;;;;;;;;21.52;67.57;101353.44;4931974;28;121607;-82
2022/08/23 03:03:47;;;;;;;;;;;;;;;21.53;67.79;101349.41;4947850;28;121427;-81
2022/08/23 03:06:13;;;;;;;;;;;;;;;21.54;67.48;101350.94;4946663;28;121452;-82
2022/08/23 03:08:48;;;;;;;;;;;;;;;21.57;67.42;101354.72;4945690;28;121285;-82
2022/08/23 03:11:46;;;;;;;;;;;;;;;21.57;67.34;101352.69;4938270;28;122016;-82
2022/08/23 03:14:12;;;;;;;;;;;;;;;21.59;67.29;101349.38;4913138;28;124498;-82
2022/08/23 03:16:38;;;;;;;;;;;;;;;21.60;67.32;101353.69;4931043;28;121372;-82
2022/08/23 03:19:03;;;;;;;;;;;;;;;21.62;67.38;101351.16;4939119;28;121505;-82
2022/08/23 03:21:30;;;;;;;;;;;;;;;21.63;67.22;101350.63;4931671;28;122886;-82
2022/08/23 03:23:55;;;;;;;;;;;;;;;21.65;67.36;101344.53;4911965;28;123487;-82
2022/08/23 03:26:22;;;;;;;;;;;;;;;21.64;67.29;101349.38;4930569;28;124990;-82
2022/08/23 03:28:48;;;;;;;;;;;;;;;21.64;67.25;101345.81;4930801;28;121923;-82
2022/08/23 03:31:14;;;;;;;;;;;;;;;21.64;66.71;101346.56;4947768;28;122408;-82
2022/08/23 03:33:58;;;;;;;;;;;;;;;21.67;66.89;101350.38;4933286;28;121490;-81
2022/08/23 03:36:24;;;;;;;;;;;;;;;21.65;67.05;101344.53;4931194;28;121355;-82
2022/08/23 03:38:50;;;;;;;;;;;;;;;21.66;66.91;101351.63;4946617;28;121569;-81
2022/08/23 03:41:16;;;;;;;;;;;;;;;21.66;66.72;101351.63;4912883;28;124478;-83
2022/08/23 03:43:42;;;;;;;;;;;;;;;21.68;67.26;101354.69;4929989;28;124173;-82
2022/08/23 03:46:09;;;;;;;;;;;;;;;21.66;66.60;101352.41;4926024;28;124450;-82
2022/08/23 03:48:37;;;;;;;;;;;;;;;21.63;67.04;101356.22;4931158;28;122001;-81
2022/08/23 03:51:04;;;;;;;;;;;;;;;21.63;66.56;101347.09;4931051;28;122038;-81
2022/08/23 03:53:29;;;;;;;;;;;;;;;21.63;66.50;101345.06;4929354;28;122570;-82
2022/08/23 03:55:55;;;;;;;;;;;;;;;21.64;66.79;101354.19;4945894;28;121341;-82
2022/08/23 03:58:22;;;;;;;;;;;;;;;21.63;66.85;101347.84;4964071;28;121922;-82
2022/08/23 04:00:47;;;;;;;;;;;;;;;21.65;66.76;101355.72;4912531;28;124831;-82
2022/08/23 04:03:13;;;;;;;;;;;;;;;21.63;66.75;101358.25;4934797;28;121472;-82
2022/08/23 04:06:01;;;;;;;;;;;;;;;21.63;66.88;101358.25;4946323;28;124830;-82
2022/08/23 04:08:27;;;;;;;;;;;;;;;21.62;66.95;101363.06;4947166;28;122570;-82
2022/08/23 04:11:02;;;;;;;;;;;;;;;21.62;66.74;101365.09;4946870;28;121546;-82
2022/08/23 04:13:28;;;;;;;;;;;;;;;21.59;66.34;101364.09;4946690;28;123047;-82
2022/08/23 04:15:55;;;;;;;;;;;;;;;21.59;66.57;101366.13;4929771;28;121757;-82
2022/08/23 04:18:21;;;;;;;;;;;;;;;21.57;66.60;101366.66;4931467;28;121089;-82
2022/08/23 04:20:48;;;;;;;;;;;;;;;21.57;66.41;101369.44;4930411;28;124302;-82
2022/08/23 04:23:17;;;;;;;;;;;;;;;21.58;66.55;101375.78;4934708;28;121156;-82
2022/08/23 04:25:49;;;;;;;;;;;;;;;21.60;66.97;101364.88;4914057;28;124224;-82
2022/08/23 04:28:16;;;;;;;;;;;;;;;21.61;66.48;101374.75;4927984;28;123791;-83
2022/08/23 04:30:42;;;;;;;;;;;;;;;21.62;66.99;101374.25;4922677;28;123418;-82
2022/08/23 04:33:10;;;;;;;;;;;;;;;21.63;66.76;101372.22;4945246;28;125383;-82
2022/08/23 04:35:35;;;;;;;;;;;;;;;21.65;67.17;101375.25;4929675;28;122271;-82
2022/08/23 04:38:01;;;;;;;;;;;;;;;21.64;66.93;101376.53;4963386;28;121453;-82
2022/08/23 04:43:13;;;;;;;;;;;;;;;21.66;66.45;101376.78;4946314;28;121971;-82
2022/08/23 04:45:40;;;;;;;;;;;;;;;21.65;66.43;101375.25;4949098;28;122250;-81
2022/08/23 04:48:31;;;;;;;;;;;;;;;21.65;66.37;101378.81;4927295;28;121494;-82
2022/08/23 04:50:57;;;;;;;;;;;;;;;21.66;66.43;101387.94;4943117;28;124059;-82
2022/08/23 04:53:22;;;;;;;;;;;;;;;21.67;66.76;101379.03;4913618;28;122954;-82
2022/08/23 04:55:55;;;;;;;;;;;;;;;21.69;65.98;101386.91;4914804;28;121363;-82
2022/08/23 04:58:20;;;;;;;;;;;;;;;21.70;66.30;101386.41;4941573;28;122044;-82
2022/08/23 05:00:47;;;;;;;;;;;;;;;;;;4922670;28;123113;-82
2022/08/23 05:03:12;;;;;;;;;;;;;;;;;;4946564;28;121404;-82
2022/08/23 05:05:40;;;;;;;;;;;;;;;21.73;66.13;101388.16;4929091;28;123987;-82
2022/08/23 05:08:06;;;;;;;;;;;;;;;21.74;66.27;101395.25;4930765;28;125248;-83
2022/08/23 05:10:32;;;;;;;;;;;;;;;21.73;65.97;101390.19;4924173;28;121906;-82
2022/08/23 05:12:58;;;;;;;;;;;;;;;21.73;66.18;101393.00;4943909;28;122772;-82
2022/08/23 05:15:23;;;;;;;;;;;;;;;21.72;66.31;101389.44;4956383;28;121214;-82
2022/08/23 05:17:56;;;;;;;;;;;;;;;21.72;66.12;101397.81;4916468;28;123358;-82
2022/08/23 05:20:22;;;;;;;;;;;;;;;21.73;66.37;101406.94;4924202;28;124625;-81
2022/08/23 05:22:49;;;;;;;;;;;;;;;21.73;66.55;101404.16;4963515;28;121616;-82
2022/08/23 05:25:49;;;;;;;;;;;;;;;21.73;66.21;101410.50;4944878;28;124706;-82
2022/08/23 05:28:25;;;;;;;;;;;;;;;21.74;66.11;101405.69;4945420;28;121940;-81
2022/08/23 05:31:02;;;;;;;;;;;;;;;21.76;66.84;101408.72;4934321;28;121740;-82
2022/08/23 05:33:30;;;;;;;;;;;;;;;21.78;66.68;101409.00;4928861;28;124797;-81
2022/08/23 05:35:56;;;;;;;;;;;;;;;21.78;66.71;101411.78;4942239;28;121300;-82
2022/08/23 05:38:23;;;;;;;;;;;;;;;21.79;66.17;101404.94;4960201;28;121954;-82
2022/08/23 05:40:50;;;;;;;;;;;;;;;21.84;66.25;101411.75;4951284;28;124318;-82
2022/08/23 05:43:16;;;;;;;;;;;;;;;21.86;66.31;101421.16;4952084;28;121359;-82
2022/08/23 05:45:42;;;;;;;;;;;;;;;21.88;66.24;101423.44;4950725;28;121746;-82
2022/08/23 05:48:08;;;;;;;;;;;;;;;21.89;66.30;101414.53;4951313;28;122274;-82
2022/08/23 05:50:46;;;;;;;;;;;;;;;21.93;66.34;101414.25;4945949;28;122228;-81
2022/08/23 05:53:12;;;;;;;;;;;;;;;21.93;65.68;101417.81;4937851;28;124635;-81
2022/08/23 05:55:40;;;;;;;;;;;;;;;21.96;65.55;101427.22;4934886;28;121677;-81
2022/08/23 05:58:14;;;;;;;;;;;;;;;21.98;65.47;101431.00;4936651;28;121405;-81
2022/08/23 06:00:40;;;;;;;;;;;;;;;22.02;65.66;101428.72;4934375;28;124507;-81
2022/08/23 06:03:05;;;;;;;;;;;;;;;22.05;65.47;101433.31;4917541;28;123202;-80
2022/08/23 06:05:32;;;;;;;;;;;;;;;22.07;65.31;101437.63;4928017;28;123906;-80
2022/08/23 06:07:59;;;;;;;;;;;;;;;22.10;65.81;101426.19;4946600;28;122299;-80
2022/08/23 06:10:24;;;;;;;;;;;;;;;22.13;65.43;101432.78;4918558;28;124227;-80
2022/08/23 06:13:03;;;;;;;;;;;;;;;22.17;65.38;101434.03;4937077;28;122324;-80
2022/08/23 06:15:28;;;;;;;;;;;;;;;22.22;65.80;101429.69;4934081;28;122565;-81
2022/08/23 06:17:54;;;;;;;;;;;;;;;22.26;65.93;101435.78;4936837;28;123791;-81
2022/08/23 06:20:20;;;;;;;;;;;;;;;22.30;65.61;101437.03;4934965;28;125461;-81
2022/08/23 06:23:04;;;;;;;;;;;;;;;22.35;65.20;101444.63;4934765;28;121807;-81
2022/08/23 06:25:31;;;;;;;;;;;;;;;22.38;65.67;101437.25;4934206;28;122252;-80
2022/08/23 06:28:50;;;;;;;;;;;;;;;22.45;64.91;101447.13;4950977;28;122668;-80
2022/08/23 06:31:43;;;;;;;;;;;;;;;22.49;65.18;101453.22;4930652;28;122267;-81
2022/08/23 06:34:04;;;;;;;;;;;;;;;22.56;65.20;101453.44;4946217;28;121694;-81
2022/08/23 06:36:54;;;;;;;;;;;;;;;22.60;64.40;101459.50;4953703;28;122281;-81
2022/08/23 06:39:40;;;;;;;;;;;;;;;22.65;64.57;101452.38;4951774;28;121998;-80
2022/08/23 06:42:35;;;;;;;;;;;;;;;22.75;63.84;101458.44;4945362;28;122330;-81
2022/08/23 06:45:02;;;;;;;;;;;;;;;22.84;63.73;101455.34;4917033;28;122114;-81
2022/08/23 06:47:36;;;;;;;;;;;;;;;22.91;63.61;101452.00;4918439;28;124247;-80
2022/08/23 06:50:02;;;;;;;;;;;;;;;22.95;63.63;101460.88;4932604;28;125772;-80
2022/08/23 06:52:48;;;;;;;;;;;;;;;23.00;62.63;101465.69;4938870;28;122372;-81
2022/08/23 06:55:43;;;;;;;;;;;;;;;23.00;62.18;101462.88;4922008;28;122692;-81
2022/08/23 06:58:41;;;;;;;;;;;;;;;23.03;61.87;101464.66;4939308;28;122357;-81
2022/08/23 07:01:22;;;;;;;;;;;;;;;23.08;62.39;101461.03;4946045;28;122499;-80
2022/08/23 07:04:05;;;;;;;;;;;;;;;23.16;61.99;101461.22;4943271;28;122163;-81
2022/08/23 07:06:50;;;;;;;;;;;;;;;23.27;62.14;101458.38;4961802;28;122266;-81
2022/08/23 07:09:17;;;;;;;;;;;;;;;23.37;62.11;101467.94;4910002;28;123940;-80
2022/08/23 07:11:43;;;;;;;;;;;;;;;23.46;61.74;101464.84;4924210;28;125271;-81
2022/08/23 07:14:10;;;;;;;;;;;;;;;23.53;60.57;101467.06;4907864;28;122042;-80
2022/08/23 07:16:40;;;;;;;;;;;;;;;23.60;60.92;101467.78;4926978;28;122694;-80
2022/08/23 07:19:07;;;;;;;;;;;;;;;23.62;61.07;101474.38;4924038;28;123699;-81
2022/08/23 07:21:34;;;;;;;;;;;;;;;23.68;61.42;101469.50;4942171;28;122004;-81
2022/08/23 07:23:59;;;;;;;;;;;;;;;23.72;60.43;101466.41;4928230;28;122978;-81
2022/08/23 07:26:25;;;;;;;;;;;;;;;23.76;60.23;101472.47;4930154;28;122752;-81
2022/08/23 07:28:51;;;;;;;;;;;;;;;23.81;59.82;101472.41;4944322;28;124043;-81
2022/08/23 07:31:16;;;;;;;;;;;;;;;23.91;59.97;101480.50;4953810;28;124802;-81
2022/08/23 07:33:43;;;;;;;;;;;;;;;24.01;59.72;101473.25;4906433;28;122182;-82
2022/08/23 07:36:15;;;;;;;;;;;;;;;24.09;59.22;101476.97;4944183;28;122531;-81
2022/08/23 07:38:41;;;;;;;;;;;;;;;24.14;58.37;101476.94;4943363;28;122793;-81
2022/08/23 07:41:07;;;;;;;;;;;;;;;24.19;58.54;101478.16;4945162;28;123207;-81
2022/08/23 07:43:33;;;;;;;;;;;;;;;24.25;59.02;101481.63;4927905;28;124025;-81
2022/08/23 07:45:59;;;;;;;;;;;;;;;24.27;57.89;101473.47;4942706;28;122737;-81
2022/08/23 07:48:25;;;;;;;;;;;;;;;24.28;58.44;101479.81;4946659;28;122598;-81
2022/08/23 07:51:11;;;;;;;;;;;;;;;24.30;58.13;101477.28;4945617;28;125542;-81
2022/08/23 07:53:37;;;;;;;;;;;;;;;24.36;57.75;101478.72;4928309;28;123172;-81
2022/08/23 07:56:07;;;;;;;;;;;;;;;24.41;57.86;101482.75;4942358;28;122111;-81
2022/08/23 07:58:51;;;;;;;;;;;;;;;24.40;57.30;101486.84;4945411;28;125223;-81
2022/08/23 08:01:31;;;;;;;;;;;;;;;24.41;57.74;101488.38;4944599;28;122760;-81
2022/08/23 08:03:58;;;;;;;;;;;;;;;24.41;57.99;101494.75;4943798;28;122858;-82
2022/08/23 08:06:30;;;;;;;;;;;;;;;24.43;57.82;101494.22;4944611;28;123593;-81
2022/08/23 08:08:56;;;;;;;;;;;;;;;24.44;57.88;101493.69;4950088;28;122445;-81
2022/08/23 08:11:24;;;;;;;;;;;;;;;24.46;57.39;101495.94;4922758;28;125506;-82
2022/08/23 08:13:50;;;;;;;;;;;;;;;24.55;57.82;101501.19;4944854;28;122536;-81
2022/08/23 08:16:21;;;;;;;;;;;;;;;24.78;58.18;101507.25;4926225;28;123832;-79
2022/08/23 08:18:47;;;;;;;;;;;;;;;25.03;57.01;101503.09;4913849;28;125561;-81
2022/08/23 08:21:50;;;;;;;;;;;;;;;25.37;56.01;101506.19;4929631;28;123828;-83
2022/08/23 08:24:25;;;;;;;;;;;;;;;25.63;54.79;101505.50;4926186;28;123698;-81
2022/08/23 08:26:56;;;;;;;;;;;;;;;25.87;53.65;101503.84;4924148;28;126231;-81
2022/08/23 08:29:22;;;;;;;;;;;;;;;26.13;53.58;101509.47;4928947;28;122350;-80
2022/08/23 08:31:50;;;;;;;;;;;;;;;26.40;53.29;101503.88;4924777;28;125688;-81
2022/08/23 08:34:16;;;;;;;;;;;;;;;26.68;53.25;101506.88;4907497;28;122927;-81
2022/08/23 08:36:45;;;;;;;;;;;;;;;26.94;52.61;101503.22;4923860;28;124043;-81
2022/08/23 08:39:17;;;;;;;;;;;;;;;27.18;51.33;101507.81;4909381;28;125453;-81
2022/08/23 08:42:07;;;;;;;;;;;;;;;27.32;51.04;101514.91;4942360;28;122297;-81
2022/08/23 08:44:57;;;;;;;;;;;;;;;27.35;50.37;101513.81;4942702;28;122654;-81
2022/08/23 08:47:34;;;;;;;;;;;;;;;27.33;49.02;101521.31;4922611;28;126208;-81
2022/08/23 08:50:17;;;;;;;;;;;;;;;27.23;48.42;101504.13;4956100;28;124272;-80
2022/08/23 08:52:54;;;;;;;;;;;;;;;27.23;49.85;101515.41;4944203;28;122520;-81
2022/08/23 08:55:37;;;;;;;;;;;;;;;27.29;49.95;101512.44;4925307;28;124145;-80
2022/08/23 08:58:05;;;;;;;;;;;;;;;27.40;49.68;101506.53;4925801;28;124918;-81
2022/08/23 09:00:32;;;;;;;;;;;;;;;27.44;48.86;101507.69;4925027;28;126040;-81
2022/08/23 09:02:59;;;;;;;;;;;;;;;27.49;49.33;101504.00;4940369;28;122843;-81
2022/08/23 09:05:27;;;;;;;;;;;;;;;27.47;48.93;101508.69;4942078;28;123095;-81
2022/08/23 09:08:12;;;;;;;;;;;;;;;27.41;48.94;101505.22;4939088;28;124939;-80
2022/08/23 09:10:40;;;;;;;;;;;;;;;27.37;49.03;101510.44;4924945;28;123391;-80
2022/08/23 09:13:14;;;;;;;;;;;;;;;27.30;49.12;101500.63;4926374;28;123002;-80
2022/08/23 09:15:59;;;;;;;;;;;;;;;27.27;48.74;101496.09;4929470;28;122653;-80
2022/08/23 09:18:26;;;;;;;;;;;;;;;27.23;49.00;101497.75;4925506;28;124952;-83
2022/08/23 09:20:54;;;;;;;;;;;;;;;27.22;49.39;101508.25;4923184;28;123049;-82
2022/08/23 09:23:26;;;;;;;;;;;;;;;27.19;49.09;101501.63;4925050;28;122373;-84
2022/08/23 09:25:55;;;;;;;;;;;;;;;27.19;49.02;101492.44;4925507;28;124874;-80
2022/08/23 09:28:32;;;;;;;;;;;;;;;27.16;48.63;101497.09;4924605;28;125189;-80
2022/08/23 09:30:58;;;;;;;;;;;;;;;27.14;48.53;101493.31;4941873;28;122929;-80
2022/08/23 09:33:45;;;;;;;;;;;;;;;27.11;48.64;101498.00;4940251;28;124615;-80
2022/08/23 09:36:27;;;;;;;;;;;;;;;27.10;48.56;101496.50;4923684;28;125478;-80
2022/08/23 09:38:58;;;;;;;;;;;;;;;27.13;48.53;101495.38;4926875;28;122461;-80
2022/08/23 09:41:36;;;;;;;;;;;;;;;27.18;48.50;101486.03;4924407;28;125320;-80
2022/08/23 09:44:08;;;;;;;;;;;;;;;27.28;48.38;101494.03;4924672;28;122582;-80
2022/08/23 09:46:34;;;;;;;;;;;;;;;27.34;47.68;101492.59;4924091;28;124687;-81
2022/08/23 09:49:20;;;;;;;;;;;;;;;27.37;47.33;101490.72;4923745;28;122967;-81
2022/08/23 09:51:47;;;;;;;;;;;;;;;27.37;46.48;101490.72;4908185;28;122948;-82
2022/08/23 09:54:24;;;;;;;;;;;;;;;27.38;46.67;101487.34;4922855;28;124430;-80
2022/08/23 09:56:52;;;;;;;;;;;;;;;27.41;46.39;101489.06;4906677;28;125328;-80
2022/08/23 09:59:24;;;;;;;;;;;;;;;27.44;46.89;101492.84;4940474;28;122315;-81
2022/08/23 10:01:50;;;;;;;;;;;;;;;27.47;46.04;101481.25;4928070;28;123055;-81
2022/08/23 10:04:28;;;;;;;;;;;;;;;27.51;45.88;101486.53;4940375;28;124034;-81
2022/08/23 10:06:54;;;;;;;;;;;;;;;27.55;46.39;101481.31;4924767;28;123103;-81
2022/08/23 10:09:28;;;;;;;;;;;;;;;27.59;46.64;101476.06;4954442;28;122874;-81
2022/08/23 10:11:54;;;;;;;;;;;;;;;27.63;46.43;101475.75;4940303;28;122550;-81
2022/08/23 10:14:21;;;;;;;;;;;;;;;27.69;46.13;101479.97;4908187;28;124193;-80
2022/08/23 10:16:57;;;;;;;;;;;;;;;27.76;46.03;101470.03;4923703;28;125121;-80
2022/08/23 10:19:28;;;;;;;;;;;;;;;27.80;45.65;101470.44;4906673;28;122579;-80
2022/08/23 10:21:59;;;;;;;;;;;;;;;27.85;45.52;101472.34;4937329;28;124859;-80
2022/08/23 10:24:27;;;;;;;;;;;;;;;27.88;45.22;101470.47;4942565;28;125673;-82
2022/08/23 10:30:06;;;;;;;;;;;;;;;27.83;44.74;101475.72;4942237;28;122561;-82
2022/08/23 10:32:51;;;;;;;;;;;;;;;27.84;44.29;101484.94;4925583;28;122680;-80
2022/08/23 10:35:35;;;;;;;;;;;;;;;27.81;44.84;101477.59;4941694;28;125394;-80
2022/08/23 10:38:19;;;;;;;;;;;;;;;27.80;44.92;101471.19;4915728;28;126161;-81
2022/08/23 10:40:47;;;;;;;;;;;;;;;27.81;44.02;101475.53;4923117;28;122314;-81
2022/08/23 10:43:13;;;;;;;;;;;;;;;27.77;42.96;101466.66;4927577;28;125440;-81
2022/08/23 10:45:40;;;;;;;;;;;;;;;27.75;43.24;101468.53;4932472;28;125341;-80
2022/08/23 10:48:26;;;;;;;;;;;;;;;27.73;43.60;101466.28;4928854;28;124223;-81
2022/08/23 10:50:54;;;;;;;;;;;;;;;27.74;43.64;101475.47;4938997;28;122394;-81
2022/08/23 10:53:36;;;;;;;;;;;;;;;27.76;43.70;101475.69;4914074;28;122286;-80
2022/08/23 10:56:03;;;;;;;;;;;;;;;27.73;43.79;101471.91;4944146;28;122958;-81
2022/08/23 10:58:35;;;;;;;;;;;;;;;27.76;44.42;101478.50;4927880;28;125617;-81
2022/08/23 11:01:02;;;;;;;;;;;;;;;27.78;43.68;101475.88;4936987;28;122566;-80
2022/08/23 11:03:33;;;;;;;;;;;;;;;27.81;43.24;101471.94;4909992;28;123816;-80
2022/08/23 11:06:18;;;;;;;;;;;;;;;27.78;42.73;101470.25;4927933;28;126062;-80
2022/08/23 11:08:45;;;;;;;;;;;;;;;27.77;42.70;101477.94;4925948;28;122987;-81
2022/08/23 11:11:30;;;;;;;;;;;;;;;27.76;42.71;101470.03;4943274;28;122397;-81
2022/08/23 11:13:56;;;;;;;;;;;;;;;27.76;43.58;101459.53;4908792;28;122589;-81
2022/08/23 11:16:27;;;;;;;;;;;;;;;27.79;43.14;101457.66;4928323;28;124133;-81
2022/08/23 11:18:53;;;;;;;;;;;;;;;27.82;42.93;101456.53;4912593;28;125784;-81
2022/08/23 11:21:55;;;;;;;;;;;;;;;27.86;43.04;101470.28;4944798;28;122373;-81
2022/08/23 11:24:52;;;;;;;;;;;;;;;27.90;43.56;101474.25;4929212;28;122367;-80
2022/08/23 11:27:29;;;;;;;;;;;;;;;27.94;43.44;101474.69;4960353;28;122887;-80
2022/08/23 11:30:33;;;;;;;;;;;;;;;27.93;43.13;101472.41;4921474;28;122599;-80
2022/08/23 11:33:17;;;;;;;;;;;;;;;27.90;43.33;101462.97;4931404;28;124597;-81
2022/08/23 11:35:48;;;;;;;;;;;;;;;27.93;43.75;101472.41;4959383;28;122430;-81
2022/08/23 11:38:16;;;;;;;;;;;;;;;27.99;43.93;101461.72;4929023;28;122890;-81
2022/08/23 11:40:48;;;;;;;;;;;;;;;28.04;43.19;101467.22;4929050;28;124868;-81
2022/08/23 11:43:28;;;;;;;;;;;;;;;28.10;42.95;101467.81;4946230;28;122660;-80
2022/08/23 11:46:12;;;;;;;;;;;;;;;28.14;43.54;101456.91;4959726;28;122475;-81
2022/08/23 11:48:41;;;;;;;;;;;;;;;28.21;43.55;101469.56;4941806;28;122862;-81
2022/08/23 11:51:26;;;;;;;;;;;;;;;28.25;43.67;101460.78;4927093;28;122505;-81
2022/08/23 11:53:51;;;;;;;;;;;;;;;28.29;43.54;101459.09;4940193;28;122514;-81
2022/08/23 11:56:36;;;;;;;;;;;;;;;28.32;44.06;101452.34;4947585;28;125081;-81
2022/08/23 11:59:14;;;;;;;;;;;;;;;28.36;43.92;101446.31;4942158;28;122542;-80
2022/08/23 12:01:40;;;;;;;;;;;;;;;28.38;43.90;101449.34;4943628;28;124034;-81
2022/08/23 12:04:10;;;;;;;;;;;;;;;28.41;43.63;101445.44;4910666;28;125044;-81
2022/08/23 12:06:45;;;;;;;;;;;;;;;28.40;43.45;101444.69;4907868;28;125234;-80
2022/08/23 12:09:35;;;;;;;;;;;;;;;28.42;43.79;101444.88;4924544;28;123242;-81
2022/08/23 12:12:01;;;;;;;;;;;;;;;28.46;43.51;101457.88;4924834;28;123623;-81
2022/08/23 12:14:29;;;;;;;;;;;;;;;28.48;43.43;101452.41;4943441;28;122488;-81
2022/08/23 12:16:55;;;;;;;;;;;;;;;28.49;43.24;101448.28;4925968;28;125928;-81
2022/08/23 12:19:45;;;;;;;;;;;;;;;28.48;43.82;101444.69;4943327;28;122353;-81
2022/08/23 12:22:12;;;;;;;;;;;;;;;28.50;43.80;101449.78;4928008;28;123372;-81
2022/08/23 12:24:47;;;;;;;;;;;;;;;28.51;43.40;101452.03;4925181;28;122305;-81
2022/08/23 12:27:18;;;;;;;;;;;;;;;28.52;44.25;101467.66;4942629;28;124060;-81
2022/08/23 12:29:53;;;;;;;;;;;;;;;28.53;44.50;101457.88;4924129;28;125288;-81
2022/08/23 12:32:39;;;;;;;;;;;;;;;28.55;44.78;101458.06;4923417;28;122428;-81
2022/08/23 12:35:17;;;;;;;;;;;;;;;28.57;44.82;101466.72;4908612;28;124516;-81
2022/08/23 12:37:52;;;;;;;;;;;;;;;28.55;44.65;101452.44;4926908;28;126237;-81
2022/08/23 12:40:26;;;;;;;;;;;;;;;28.56;44.67;101456.00;4923704;28;123583;-81
2022/08/23 12:43:00;;;;;;;;;;;;;;;28.57;44.40;101452.63;4913830;28;123514;-81
2022/08/23 12:45:34;;;;;;;;;;;;;;;28.60;44.81;101459.97;4908579;28;123001;-81
2022/08/23 12:48:01;;;;;;;;;;;;;;;28.58;44.94;101462.59;4926342;28;123849;-81
2022/08/23 12:50:31;;;;;;;;;;;;;;;28.60;45.37;101456.38;4941850;28;126516;-81
2022/08/23 12:52:58;;;;;;;;;;;;;;;28.63;44.69;101458.13;4944654;28;122495;-81
2022/08/23 12:55:29;;;;;;;;;;;;;;;28.63;44.42;101460.94;4941612;28;122503;-81
2022/08/23 12:57:56;;;;;;;;;;;;;;;28.64;44.59;101466.03;4908554;28;125251;-81
2022/08/23 13:00:33;;;;;;;;;;;;;;;28.65;44.19;101461.88;4910938;28;122531;-81